Time;durP1;ratioP1;P1;durP2;ratioP2;P2;SDS_P1;SDS_P2;PMS_P1;PMS_P2;Temp;Humidity;BMP_temperature;BMP_pressure;BME280_temperature;BME280_humidity;BME280_pressure;Samples;Min_cycle;Max_cycle;Signal;HPM_P1;HPM_P2
2023/04/11 00:01:06;;;;;;;9.38;7.07;;;;;;;10.98;49.81;100580.31;7395303;19;20022;-68
2023/04/11 00:03:35;;;;;;;10.63;7.43;;;;;;;10.97;49.81;100582.97;7393793;19;20430;-68
2023/04/11 00:06:03;;;;;;;7.88;6.60;;;;;;;10.95;49.83;100580.38;7395125;19;20036;-69
2023/04/11 00:08:32;;;;;;;8.60;6.93;;;;;;;10.95;49.76;100574.28;7394653;19;20033;-68
2023/04/11 00:11:03;;;;;;;8.30;6.65;;;;;;;10.92;50.07;100573.44;7393997;19;20037;-68
2023/04/11 00:13:33;;;;;;;8.10;6.57;;;;;;;10.91;49.85;100571.72;7394072;19;20022;-68
2023/04/11 00:16:07;;;;;;;9.73;7.43;;;;;;;10.87;50.03;100556.09;7394814;19;20010;-68
2023/04/11 00:18:38;;;;;;;11.38;7.53;;;;;;;10.86;50.01;100552.59;7396511;19;20491;-68
2023/04/11 00:21:07;;;;;;;8.35;6.85;;;;;;;10.84;50.22;100557.06;7402549;19;20018;-68
2023/04/11 00:23:35;;;;;;;8.88;6.80;;;;;;;10.80;50.36;100544.88;7400780;19;20022;-68
2023/04/11 00:26:07;;;;;;;8.80;7.22;;;;;;;10.80;50.53;100541.41;7401781;19;20505;-68
2023/04/11 00:28:36;;;;;;;8.25;7.13;;;;;;;10.75;50.26;100531.91;7402565;19;20062;-68
2023/04/11 00:31:04;;;;;;;7.88;6.63;;;;;;;10.75;50.53;100534.53;7400564;19;20018;-68
2023/04/11 00:33:33;;;;;;;8.02;6.18;;;;;;;10.75;50.47;100531.91;7400565;19;20014;-68
2023/04/11 00:36:01;;;;;;;8.77;7.00;;;;;;;10.73;50.53;100533.69;7401791;19;20023;-68
2023/04/11 00:38:30;;;;;;;8.27;6.43;;;;;;;10.71;50.58;100527.63;7398859;19;20015;-68
2023/04/11 00:41:08;;;;;;;8.98;7.32;;;;;;;10.69;51.05;100520.69;7401703;19;20018;-68
2023/04/11 00:43:36;;;;;;;9.23;6.70;;;;;;;10.69;50.68;100520.69;7400462;19;20018;-68
2023/04/11 00:46:07;;;;;;;9.02;7.05;;;;;;;10.67;50.69;100519.88;7401516;19;20035;-68
2023/04/11 00:48:37;;;;;;;8.32;6.50;;;;;;;10.65;50.79;100517.28;7401502;19;20011;-68
2023/04/11 00:51:05;;;;;;;9.80;6.95;;;;;;;10.63;50.92;100516.47;7400122;19;20085;-68
2023/04/11 00:53:34;;;;;;;8.05;6.60;;;;;;;10.63;50.92;100521.72;7398424;19;20022;-68
2023/04/11 00:56:02;;;;;;;7.85;6.55;;;;;;;10.63;50.90;100507.72;7401091;19;20035;-68
2023/04/11 00:58:36;;;;;;;8.13;6.93;;;;;;;10.63;50.95;100507.72;7398889;19;20011;-68
2023/04/11 01:01:07;;;;;;;8.68;5.93;;;;;;;10.61;50.98;100494.66;7401581;19;20014;-68
2023/04/11 01:03:36;;;;;;;7.60;6.38;;;;;;;10.61;51.08;100486.78;7397923;19;20011;-68
2023/04/11 01:06:06;;;;;;;7.97;6.25;;;;;;;10.61;50.94;100478.06;7400902;19;20037;-68
2023/04/11 01:08:35;;;;;;;8.30;6.65;;;;;;;10.61;51.05;100471.03;7400404;19;20015;-68
2023/04/11 01:11:04;;;;;;;8.25;6.45;;;;;;;10.61;50.94;100455.31;7399647;19;20082;-68
2023/04/11 01:13:36;;;;;;;7.55;6.63;;;;;;;10.61;51.03;100457.94;7400029;19;20441;-68
2023/04/11 01:16:05;;;;;;;7.70;6.25;;;;;;;10.62;50.95;100451.78;7400987;19;20015;-68
2023/04/11 01:18:34;;;;;;;7.85;6.25;;;;;;;10.63;50.89;100445.63;7397625;19;20013;-69
2023/04/11 01:21:02;;;;;;;7.88;6.35;;;;;;;10.63;50.82;100447.38;7397471;19;20431;-69
2023/04/11 01:23:33;;;;;;;9.38;6.50;;;;;;;10.63;50.94;100437.78;7398661;19;20018;-69
2023/04/11 01:26:02;;;;;;;8.48;6.22;;;;;;;10.65;50.92;100440.34;7399949;19;20028;-69
2023/04/11 01:28:30;;;;;;;7.07;6.07;;;;;;;10.65;50.83;100438.56;7399877;19;20018;-68
2023/04/11 01:30:59;;;;;;;7.28;6.00;;;;;;;10.66;50.84;100429.81;7396782;19;20032;-68
2023/04/11 01:33:27;;;;;;;7.45;6.13;;;;;;;10.66;50.83;100424.56;7397432;19;20023;-68
2023/04/11 01:35:56;;;;;;;7.72;5.88;;;;;;;10.66;50.97;100421.09;7397558;19;20019;-68
2023/04/11 01:38:24;;;;;;;8.77;6.45;;;;;;;10.65;51.01;100408.88;7399403;19;20086;-68
2023/04/11 01:40:56;;;;;;;8.18;6.60;;;;;;;10.62;50.97;100407.19;7399791;19;20218;-69
2023/04/11 01:43:25;;;;;;;7.72;6.32;;;;;;;10.62;50.94;100414.22;7398301;19;20015;-68
2023/04/11 01:45:53;;;;;;;8.68;6.00;;;;;;;10.61;50.92;100392.34;7399601;19;20018;-68
2023/04/11 01:48:22;;;;;;;8.15;6.63;;;;;;;10.59;51.12;100402.03;7399018;19;20375;-68
2023/04/11 01:50:51;;;;;;;8.65;7.00;;;;;;;10.57;51.04;100409.91;7397015;19;20035;-69
2023/04/11 01:53:20;;;;;;;7.30;5.97;;;;;;;10.57;51.10;100399.44;7397937;19;20378;-69
2023/04/11 01:55:48;;;;;;;9.32;6.40;;;;;;;10.58;51.12;100395.91;7398853;19;20046;-68
2023/04/11 01:58:19;;;;;;;8.13;6.28;;;;;;;10.56;51.32;100382.00;7397571;19;20490;-69
2023/04/11 02:00:48;;;;;;;7.50;5.90;;;;;;;10.56;51.07;100392.50;7399566;19;20023;-69
2023/04/11 02:03:17;;;;;;;9.02;6.75;;;;;;;10.56;51.21;100391.59;7398832;19;20019;-69
2023/04/11 02:05:46;;;;;;;7.70;5.82;;;;;;;10.55;51.25;100375.03;7398413;19;20015;-69
2023/04/11 02:08:14;;;;;;;7.53;5.95;;;;;;;10.53;51.23;100368.94;7398219;19;20045;-69
2023/04/11 02:10:43;;;;;;;9.23;6.68;;;;;;;10.51;51.39;100370.75;7398956;19;20014;-69
2023/04/11 02:13:11;;;;;;;9.05;6.60;;;;;;;10.49;51.38;100359.44;7396056;19;20419;-69
2023/04/11 02:15:42;;;;;;;8.23;5.72;;;;;;;10.48;51.59;100362.13;7398143;19;20485;-68
2023/04/11 02:18:11;;;;;;;7.18;5.93;;;;;;;10.46;51.50;100350.81;7398913;19;20414;-68
2023/04/11 02:20:39;;;;;;;7.57;6.13;;;;;;;10.45;51.56;100341.22;7396023;19;20085;-69
2023/04/11 02:23:08;;;;;;;7.13;6.07;;;;;;;10.43;51.71;100330.78;7397308;19;20082;-68
2023/04/11 02:25:37;;;;;;;7.55;5.80;;;;;;;10.38;51.82;100324.78;7398194;19;20018;-68
2023/04/11 02:28:06;;;;;;;7.15;6.03;;;;;;;10.37;51.87;100331.78;7398275;19;20098;-69
2023/04/11 02:30:34;;;;;;;8.32;6.90;;;;;;;10.36;52.02;100324.84;7397539;19;20035;-69
2023/04/11 02:33:06;;;;;;;9.30;6.55;;;;;;;10.34;52.04;100323.97;7396992;19;20036;-69
2023/04/11 02:35:34;;;;;;;7.43;6.10;;;;;;;10.34;51.97;100325.75;7396101;19;20363;-68
2023/04/11 02:38:03;;;;;;;7.72;6.72;;;;;;;10.34;52.12;100321.34;7394975;19;20027;-69
2023/04/11 02:40:31;;;;;;;7.25;6.18;;;;;;;10.33;52.22;100322.25;7397422;19;20015;-69
2023/04/11 02:43:00;;;;;;;7.47;5.88;;;;;;;10.32;52.22;100317.06;7396278;19;20051;-69
2023/04/11 02:45:28;;;;;;;7.47;6.05;;;;;;;10.30;52.36;100327.59;7395653;19;20018;-69
2023/04/11 02:47:57;;;;;;;7.18;6.38;;;;;;;10.28;52.37;100327.59;7396164;19;20028;-68
2023/04/11 02:50:28;;;;;;;7.13;5.80;;;;;;;10.28;52.60;100329.38;7397384;19;20036;-68
2023/04/11 02:52:57;;;;;;;8.20;6.82;;;;;;;10.27;52.47;100325.03;7395784;19;20027;-68
2023/04/11 02:55:25;;;;;;;7.57;5.95;;;;;;;10.26;52.66;100325.94;7396679;19;20022;-67
2023/04/11 02:57:54;;;;;;;8.02;5.47;;;;;;;10.24;52.68;100319.91;7394872;19;20035;-68
2023/04/11 03:00:23;;;;;;;8.73;6.57;;;;;;;10.25;52.63;100316.38;7396345;19;20419;-68
2023/04/11 03:02:52;;;;;;;8.18;6.32;;;;;;;10.25;52.68;100321.63;7394456;19;20018;-68
2023/04/11 03:05:20;;;;;;;8.00;6.60;;;;;;;10.25;52.64;100317.22;7396213;19;20019;-68
2023/04/11 03:07:51;;;;;;;7.18;6.15;;;;;;;10.25;52.70;100305.88;7394931;19;20078;-68
2023/04/11 03:10:20;;;;;;;7.10;6.03;;;;;;;10.25;52.69;100317.22;7396150;19;20081;-68
2023/04/11 03:12:48;;;;;;;7.57;5.95;;;;;;;10.26;52.63;100316.31;7394946;19;20089;-68
2023/04/11 03:15:17;;;;;;;8.43;6.13;;;;;;;10.26;52.77;100313.72;7396474;19;20018;-68
2023/04/11 03:17:45;;;;;;;6.95;5.60;;;;;;;10.26;52.89;100308.47;7396444;19;20082;-69
2023/04/11 03:20:19;;;;;;;7.03;6.20;;;;;;;10.24;52.88;100310.25;7396133;19;20502;-69
2023/04/11 03:22:48;;;;;;;10.32;7.20;;;;;;;10.25;52.97;100311.97;7395674;19;20503;-69
2023/04/11 03:25:19;;;;;;;7.57;6.25;;;;;;;10.24;52.95;100307.63;7395873;19;20031;-67
2023/04/11 03:27:47;;;;;;;8.65;5.97;;;;;;;10.23;53.04;100300.66;7396584;19;20070;-67
2023/04/11 03:30:17;;;;;;;7.13;5.90;;;;;;;10.23;53.07;100298.03;7396169;19;20094;-68
2023/04/11 03:32:45;;;;;;;7.07;6.20;;;;;;;10.21;53.13;100294.63;7394248;19;20078;-68
2023/04/11 03:35:13;;;;;;;7.35;6.38;;;;;;;10.21;53.30;100299.88;7393819;19;20079;-68
2023/04/11 03:37:42;;;;;;;8.55;6.57;;;;;;;10.20;53.43;100298.13;7395873;19;20014;-68
2023/04/11 03:40:11;;;;;;;9.38;6.75;;;;;;;10.20;53.36;100300.75;7395192;19;20459;-68
2023/04/11 03:42:43;;;;;;;7.85;5.72;;;;;;;10.20;53.71;100299.91;7394862;19;20035;-68
2023/04/11 03:45:11;;;;;;;7.97;6.60;;;;;;;10.19;54.10;100299.03;7395703;19;20027;-68
2023/04/11 03:47:41;;;;;;;7.43;5.70;;;;;;;10.18;55.43;100286.81;7393713;19;20086;-67
2023/04/11 03:50:10;;;;;;;8.13;6.03;;;;;;;10.15;55.61;100293.91;7395268;19;20081;-68
2023/04/11 03:52:39;;;;;;;8.57;7.50;;;;;;;10.08;56.80;100306.31;7392282;19;20074;-68
2023/04/11 03:55:08;;;;;;;7.97;6.47;;;;;;;10.01;57.55;100302.13;7394061;19;20477;-68
2023/04/11 03:57:36;;;;;;;9.25;6.60;;;;;;;9.90;59.10;100305.06;7392852;19;20418;-68
2023/04/11 04:00:09;;;;;;;8.77;7.05;;;;;;;9.74;61.22;100288.88;7394635;19;20035;-68
2023/04/11 04:02:38;;;;;;;9.80;7.40;;;;;;;9.59;63.65;100296.22;7393988;19;20369;-70
2023/04/11 04:05:07;;;;;;;8.90;7.32;;;;;;;9.42;66.18;100277.44;7394307;19;20078;-68
2023/04/11 04:07:35;;;;;;;9.82;7.30;;;;;;;9.22;68.10;100281.38;7394396;19;20015;-69
2023/04/11 04:10:04;;;;;;;11.20;8.32;;;;;;;9.05;69.88;100273.06;7392752;19;20022;-69
2023/04/11 04:12:32;;;;;;;11.15;8.15;;;;;;;8.87;71.86;100280.47;7393419;19;20036;-69
2023/04/11 04:15:01;;;;;;;11.98;8.68;;;;;;;8.71;73.54;100279.06;7395604;19;20031;-70
2023/04/11 04:17:32;;;;;;;13.50;9.73;;;;;;;8.56;75.05;100268.03;7392996;19;20102;-70
2023/04/11 04:20:00;;;;;;;12.20;9.32;;;;;;;8.43;76.13;100269.16;7393838;19;20074;-69
2023/04/11 04:22:31;;;;;;;14.93;10.85;;;;;;;8.32;77.32;100278.06;7394402;19;20077;-69
2023/04/11 04:24:59;;;;;;;13.75;9.75;;;;;;;8.22;78.33;100273.91;7394375;19;20015;-68
2023/04/11 04:27:28;;;;;;;12.40;9.65;;;;;;;8.15;79.17;100273.16;7394424;19;20029;-69
2023/04/11 04:29:56;;;;;;;12.95;10.30;;;;;;;8.08;80.33;100266.34;7392308;19;20063;-69
2023/04/11 04:32:27;;;;;;;14.50;10.50;;;;;;;8.04;81.10;100269.91;7392778;19;20082;-70
2023/04/11 04:35:00;;;;;;;17.08;9.35;;;;;;;7.97;81.89;100257.84;7392599;19;20022;-69
2023/04/11 04:37:28;;;;;;;12.98;9.70;;;;;;;7.94;82.65;100255.28;7394386;19;20022;-71
2023/04/11 04:40:00;;;;;;;13.50;9.75;;;;;;;7.90;83.05;100258.81;7393638;19;20015;-69
2023/04/11 04:42:31;;;;;;;12.60;10.15;;;;;;;7.87;83.65;100267.59;7393183;19;20491;-70
2023/04/11 04:44:59;;;;;;;12.55;9.15;;;;;;;7.83;84.53;100273.75;7393420;19;20078;-69
2023/04/11 04:47:32;;;;;;;15.93;9.85;;;;;;;7.80;84.58;100264.22;7393757;19;20023;-69
2023/04/11 04:50:04;;;;;;;13.00;9.40;;;;;;;7.76;85.04;100264.31;7393484;19;20555;-69
2023/04/11 04:52:32;;;;;;;15.05;10.10;;;;;;;7.77;85.54;100263.41;7391713;19;20015;-69
2023/04/11 04:55:07;;;;;;;15.20;10.20;;;;;;;7.75;86.19;100265.22;7393409;19;20093;-69
2023/04/11 04:57:36;;;;;;;13.52;9.77;;;;;;;7.74;86.58;100258.28;7392521;19;20010;-69
2023/04/11 05:00:10;;;;;;;15.30;10.85;;;;;;;7.73;86.72;100256.53;7393204;19;20078;-69
2023/04/11 05:02:39;;;;;;;14.27;9.32;;;;;;;7.71;87.87;100248.75;7391265;19;20018;-69
2023/04/11 05:05:12;;;;;;;13.82;9.98;;;;;;;7.69;88.28;100234.84;7396636;19;20040;-69
2023/04/11 05:07:41;;;;;;;14.32;10.80;;;;;;;7.69;88.65;100215.72;7400209;19;20014;-69
2023/04/11 05:10:10;;;;;;;16.42;10.68;;;;;;;7.68;89.09;100220.06;7399996;19;20502;-70
2023/04/11 05:12:39;;;;;;;13.73;9.63;;;;;;;7.68;88.86;100220.06;7397234;19;20070;-68
2023/04/11 05:15:10;;;;;;;13.40;9.50;;;;;;;7.69;89.58;100223.53;7400279;19;20026;-68
2023/04/11 05:17:39;;;;;;;12.60;10.18;;;;;;;7.68;89.73;100219.22;7399739;19;20014;-68
2023/04/11 05:20:12;;;;;;;16.42;10.82;;;;;;;7.72;90.20;100234.81;7400327;19;20035;-68
2023/04/11 05:22:41;;;;;;;14.27;10.35;;;;;;;7.72;90.67;100246.97;7399713;19;20041;-68
2023/04/11 05:25:10;;;;;;;19.33;12.65;;;;;;;7.72;90.93;100244.38;7396817;19;20022;-68
2023/04/11 05:27:39;;;;;;;16.10;11.60;;;;;;;7.70;91.48;100241.78;7397058;19;20014;-67
2023/04/11 05:30:09;;;;;;;15.30;10.75;;;;;;;7.68;92.05;100232.25;7399240;19;20018;-68
2023/04/11 05:32:37;;;;;;;17.38;11.25;;;;;;;7.67;92.48;100239.22;7397457;19;20082;-68
2023/04/11 05:35:06;;;;;;;17.00;12.95;;;;;;;7.62;92.60;100236.72;7397445;19;20082;-68
2023/04/11 05:37:37;;;;;;;15.68;11.43;;;;;;;7.62;93.53;100236.72;7397128;19;20019;-66
2023/04/11 05:40:08;;;;;;;16.85;11.55;;;;;;;7.61;93.32;100237.59;7399143;19;20018;-67
2023/04/11 05:42:36;;;;;;;20.15;12.27;;;;;;;7.61;93.86;100244.56;7399919;19;20021;-68
2023/04/11 05:45:05;;;;;;;17.33;11.65;;;;;;;7.60;94.14;100259.34;7396961;19;20018;-67
2023/04/11 05:47:33;;;;;;;14.60;11.27;;;;;;;7.60;94.73;100259.34;7396727;19;20017;-69
2023/04/11 05:50:02;;;;;;;15.57;11.85;;;;;;;7.61;94.95;100265.47;7399139;19;20039;-69
2023/04/11 05:52:30;;;;;;;17.77;12.43;;;;;;;7.61;95.05;100260.25;7397980;19;20023;-66
2023/04/11 05:55:03;;;;;;;17.42;12.23;;;;;;;7.61;95.24;100263.69;7398658;19;20042;-66
2023/04/11 05:57:38;;;;;;;17.35;11.70;;;;;;;7.63;95.63;100264.53;7397134;19;20018;-68
2023/04/11 06:00:11;;;;;;;14.95;10.82;;;;;;;7.65;95.45;100262.75;7398232;19;20082;-68
2023/04/11 06:02:40;;;;;;;16.73;12.45;;;;;;;7.66;95.83;100261.88;7399220;19;20022;-68
2023/04/11 06:05:10;;;;;;;18.40;13.00;;;;;;;7.70;95.36;100251.38;7397724;19;20018;-68
2023/04/11 06:07:39;;;;;;;20.20;12.35;;;;;;;7.74;95.53;100251.28;7395459;19;20010;-67
2023/04/11 06:10:11;;;;;;;19.20;12.80;;;;;;;7.77;95.97;100242.53;7396082;19;20047;-67
2023/04/11 06:12:40;;;;;;;17.55;12.70;;;;;;;7.80;95.90;100240.72;7397087;19;20014;-68
2023/04/11 06:15:10;;;;;;;17.45;12.07;;;;;;;7.81;95.87;100244.22;7395802;19;20074;-70
2023/04/11 06:17:39;;;;;;;19.08;12.45;;;;;;;7.85;96.03;100240.66;7396375;19;20018;-72
2023/04/11 06:20:09;;;;;;;18.10;12.68;;;;;;;7.87;96.19;100238.84;7397692;19;20099;-66
2023/04/11 06:22:38;;;;;;;18.60;13.18;;;;;;;7.88;96.40;100237.13;7397767;19;20019;-67
2023/04/11 06:25:11;;;;;;;19.33;14.02;;;;;;;7.88;96.47;100230.13;7398571;19;20031;-69
2023/04/11 06:27:39;;;;;;;22.42;14.15;;;;;;;7.88;96.43;100240.59;7397486;19;20091;-71
2023/04/11 06:30:09;;;;;;;20.60;13.43;;;;;;;7.89;96.94;100247.53;7397979;19;20039;-69
2023/04/11 06:32:38;;;;;;;17.73;12.18;;;;;;;7.90;96.85;100249.25;7395573;19;20047;-67
2023/04/11 06:35:28;;;;;;;16.33;11.82;;;;;;;7.94;97.17;100260.53;7397759;19;20036;-67
2023/04/11 06:37:56;;;;;;;18.00;12.80;;;;;;;7.96;96.97;100266.56;7395583;19;20082;-68
2023/04/11 06:40:28;;;;;;;16.80;12.30;;;;;;;7.98;96.98;100267.41;7397104;19;20077;-68
2023/04/11 06:42:57;;;;;;;15.75;12.10;;;;;;;7.97;96.95;100243.03;7397250;19;20074;-69
2023/04/11 06:45:25;;;;;;;19.33;12.40;;;;;;;8.05;97.09;100252.47;7397817;19;20032;-69
2023/04/11 06:47:54;;;;;;;15.75;11.93;;;;;;;8.07;97.04;100251.53;7397472;19;20077;-69
2023/04/11 06:50:22;;;;;;;18.15;12.07;;;;;;;8.11;97.24;100254.97;7396571;19;20022;-71
2023/04/11 06:52:51;;;;;;;18.92;12.43;;;;;;;8.14;97.07;100247.06;7396348;19;20031;-68
2023/04/11 06:55:20;;;;;;;16.83;12.05;;;;;;;8.19;97.15;100241.75;7396539;19;20019;-68
2023/04/11 06:57:57;;;;;;;15.20;12.00;;;;;;;8.22;97.08;100253.00;7395682;19;20013;-67
2023/04/11 07:00:32;;;;;;;18.33;11.80;;;;;;;8.26;96.75;100267.72;7396305;19;20018;-68
2023/04/11 07:03:00;;;;;;;16.85;11.90;;;;;;;8.28;96.88;100259.88;7395275;19;20086;-68
2023/04/11 07:05:29;;;;;;;16.92;11.95;;;;;;;8.29;96.88;100254.59;7396203;19;20010;-69
2023/04/11 07:07:58;;;;;;;15.60;11.55;;;;;;;8.31;96.83;100260.69;7396665;19;20082;-68
2023/04/11 07:10:27;;;;;;;16.83;11.48;;;;;;;8.32;96.82;100272.81;7396475;19;20032;-68
2023/04/11 07:12:58;;;;;;;15.40;10.63;;;;;;;8.34;96.91;100275.44;7395536;19;20031;-70
2023/04/11 07:15:26;;;;;;;15.48;11.50;;;;;;;8.37;96.67;100274.50;7396306;19;20018;-68
2023/04/11 07:17:55;;;;;;;14.93;11.40;;;;;;;8.39;96.96;100273.59;7394113;19;20070;-68
2023/04/11 07:20:23;;;;;;;15.75;11.50;;;;;;;8.45;96.77;100267.34;7393919;19;20090;-70
2023/04/11 07:22:52;;;;;;;15.43;11.90;;;;;;;8.50;96.26;100273.38;7394079;19;20022;-70
2023/04/11 07:25:21;;;;;;;16.95;12.38;;;;;;;8.54;96.50;100274.19;7394271;19;20017;-70
2023/04/11 07:27:51;;;;;;;16.25;10.90;;;;;;;8.59;96.66;100273.22;7393271;19;20010;-70
2023/04/11 07:30:23;;;;;;;15.00;11.63;;;;;;;8.62;96.70;100269.66;7395570;19;20410;-70
2023/04/11 07:32:51;;;;;;;17.25;11.82;;;;;;;8.66;96.60;100273.94;7395000;19;20019;-70
2023/04/11 07:35:19;;;;;;;16.27;12.10;;;;;;;8.68;96.38;100263.44;7395389;19;20018;-68
2023/04/11 07:37:48;;;;;;;14.48;10.68;;;;;;;8.68;96.72;100258.19;7393254;19;20481;-72
2023/04/11 07:40:16;;;;;;;13.68;10.45;;;;;;;8.69;96.21;100260.78;7395789;19;20018;-72
2023/04/11 07:42:45;;;;;;;15.63;11.57;;;;;;;8.69;96.23;100270.38;7393974;19;20438;-72
2023/04/11 07:45:14;;;;;;;17.30;12.02;;;;;;;8.71;96.67;100276.47;7392742;19;20078;-72
2023/04/11 07:47:45;;;;;;;16.42;11.50;;;;;;;8.72;96.42;100270.31;7395429;19;20078;-74
2023/04/11 07:50:13;;;;;;;15.68;11.43;;;;;;;8.72;96.26;100278.16;7395558;19;20022;-72
2023/04/11 07:52:42;;;;;;;13.75;11.23;;;;;;;8.73;96.62;100269.41;7392347;19;20094;-71
2023/04/11 07:55:11;;;;;;;15.73;11.38;;;;;;;8.74;96.40;100279.84;7394564;19;20079;-72
2023/04/11 07:57:40;;;;;;;15.07;10.93;;;;;;;8.76;96.53;100271.97;7394188;19;20857;-71
2023/04/11 08:00:11;;;;;;;17.45;11.90;;;;;;;8.80;96.86;100274.47;7393967;19;20423;-71
2023/04/11 08:02:39;;;;;;;14.45;11.57;;;;;;;8.84;96.62;100271.81;7393593;19;20359;-73
2023/04/11 08:05:11;;;;;;;16.85;11.32;;;;;;;8.88;96.40;100265.59;7397149;19;20111;-72
2023/04/11 08:07:40;;;;;;;14.80;10.98;;;;;;;8.89;95.91;100267.34;7395025;19;20019;-71
2023/04/11 08:10:10;;;;;;;14.68;10.70;;;;;;;8.88;96.20;100270.84;7394515;19;20018;-71
2023/04/11 08:12:38;;;;;;;14.75;9.98;;;;;;;8.92;95.68;100286.44;7394270;19;20422;-72
2023/04/11 08:15:07;;;;;;;15.68;10.07;;;;;;;8.94;96.00;100292.47;7394521;19;20070;-72
2023/04/11 08:17:37;;;;;;;13.40;9.50;;;;;;;8.96;95.82;100292.47;7394394;19;20022;-71
2023/04/11 08:20:07;;;;;;;12.75;8.98;;;;;;;8.98;96.37;100269.72;7392168;19;20535;-71
2023/04/11 08:22:40;;;;;;;14.00;9.43;;;;;;;9.00;95.64;100286.28;7394358;19;20018;-71
2023/04/11 08:25:11;;;;;;;11.82;8.93;;;;;;;9.04;95.52;100287.06;7393866;19;20369;-72
2023/04/11 08:27:40;;;;;;;14.50;9.45;;;;;;;9.07;95.47;100277.41;7393518;19;20021;-72
2023/04/11 08:30:10;;;;;;;11.35;7.85;;;;;;;9.15;94.94;100287.69;7394073;19;20086;-71
2023/04/11 08:32:39;;;;;;;13.80;10.23;;;;;;;9.24;94.77;100289.22;7391506;19;20023;-71
2023/04/11 08:35:08;;;;;;;24.35;12.23;;;;;;;9.32;94.77;100289.88;7393713;19;20019;-71
2023/04/11 08:37:40;;;;;;;12.68;8.43;;;;;;;9.43;94.13;100298.34;7393233;19;20553;-71
2023/04/11 08:40:10;;;;;;;11.23;7.65;;;;;;;9.54;93.14;100305.94;7398941;19;20014;-71
2023/04/11 08:42:39;;;;;;;10.90;6.88;;;;;;;9.65;92.16;100304.81;7400861;19;20032;-72
2023/04/11 08:45:09;;;;;;;7.93;5.82;;;;;;;9.71;89.64;100302.91;7401160;19;20035;-72
2023/04/11 08:47:38;;;;;;;7.85;5.18;;;;;;;9.79;88.79;100315.81;7401166;19;20023;-72
2023/04/11 08:50:07;;;;;;;13.05;6.13;;;;;;;9.84;89.05;100311.31;7400735;19;20018;-71
2023/04/11 08:52:39;;;;;;;9.40;5.03;;;;;;;9.83;87.52;100319.22;7400128;19;20066;-71
2023/04/11 08:55:11;;;;;;;6.40;4.40;;;;;;;9.85;87.25;100325.28;7398304;19;20014;-71
2023/04/11 08:57:41;;;;;;;9.77;4.30;;;;;;;9.74;82.96;100342.13;7400188;19;20031;-72
2023/04/11 09:00:13;;;;;;;5.97;2.70;;;;;;;9.65;84.65;100346.72;7401343;19;20041;-71
2023/04/11 09:02:57;;;;;;;4.95;2.53;;;;;;;9.31;81.39;100337.91;7399828;19;20040;-70
2023/04/11 09:05:26;;;;;;;;;;;;;;;8.97;81.62;100317.72;7401344;19;20018;-69
2023/04/11 09:07:54;;;;;;;4.20;2.90;;;;;;;8.63;87.57;100324.53;7400298;19;19987;-70
2023/04/11 09:10:27;;;;;;;4.95;1.88;;;;;;;8.37;88.11;100324.19;7400211;19;20039;-70
2023/04/11 09:12:56;;;;;;;5.47;2.50;;;;;;;8.22;88.59;100335.78;7399410;19;20018;-70
2023/04/11 09:15:27;;;;;;;2.90;1.77;;;;;;;8.11;89.78;100329.00;7399741;19;20498;-70
2023/04/11 09:17:57;;;;;;;5.30;2.08;;;;;;;8.09;89.45;100335.16;7400249;19;20019;-70
2023/04/11 09:20:29;;;;;;;5.80;2.58;;;;;;;8.11;91.15;100330.72;7399411;19;20078;-72
2023/04/11 09:23:00;;;;;;;6.63;2.60;;;;;;;8.14;91.75;100335.91;7398690;19;20480;-71
2023/04/11 09:25:44;;;;;;;6.20;2.38;;;;;;;8.19;91.78;100334.09;7400317;19;20017;-70
2023/04/11 09:28:13;;;;;;;20.63;12.05;;;;;;;8.23;91.60;100320.06;7396780;19;20025;-70
2023/04/11 09:30:51;;;;;;;8.70;4.63;;;;;;;8.24;91.54;100316.56;7399537;19;20074;-69
2023/04/11 09:33:23;;;;;;;3.55;2.10;;;;;;;8.27;91.25;100316.50;7399371;19;20017;-70
2023/04/11 09:35:52;;;;;;;4.53;2.03;;;;;;;8.30;91.21;100308.59;7398985;19;20018;-71
2023/04/11 09:38:39;;;;;;;4.28;2.72;;;;;;;8.35;91.22;100305.88;7399312;19;20085;-71
2023/04/11 09:41:10;;;;;;;3.97;2.50;;;;;;;8.39;89.31;100309.31;7403635;19;20010;-71
2023/04/11 09:43:52;;;;;;;5.25;2.65;;;;;;;8.45;88.80;100293.50;7398403;19;20019;-71
2023/04/11 09:46:21;;;;;;;6.50;3.15;;;;;;;8.55;89.95;100289.84;7398680;19;20010;-71
2023/04/11 09:48:50;;;;;;;3.83;2.80;;;;;;;8.67;90.49;100293.09;7398443;19;20028;-71
2023/04/11 09:51:20;;;;;;;6.50;3.30;;;;;;;8.76;89.18;100282.44;7396265;19;20086;-71
2023/04/11 09:53:49;;;;;;;9.68;3.20;;;;;;;8.88;89.36;100290.00;7397214;19;20074;-72
2023/04/11 09:56:20;;;;;;;9.52;3.72;;;;;;;9.01;87.31;100287.13;7398381;19;20031;-72
2023/04/11 09:58:49;;;;;;;8.60;3.92;;;;;;;9.15;80.87;100300.78;7396463;19;20381;-72
2023/04/11 10:01:19;;;;;;;8.50;3.42;;;;;;;9.26;80.17;100300.50;7397631;19;20078;-72
2023/04/11 10:03:49;;;;;;;5.90;3.22;;;;;;;9.37;78.11;100300.25;7395588;19;20023;-71
2023/04/11 10:06:25;;;;;;;5.80;2.60;;;;;;;9.47;80.19;100293.91;7397917;19;20021;-69
2023/04/11 10:08:53;;;;;;;7.72;2.65;;;;;;;9.59;78.53;100284.88;7397677;19;20019;-71
2023/04/11 10:11:25;;;;;;;11.70;3.53;;;;;;;9.68;79.46;100289.91;7402305;19;20018;-71
2023/04/11 10:13:54;;;;;;;7.32;2.65;;;;;;;9.77;80.33;100288.81;7396636;19;20014;-74
2023/04/11 10:16:24;;;;;;;6.45;2.92;;;;;;;9.84;80.66;100287.72;7398059;19;20037;-72
2023/04/11 10:19:22;;;;;;;5.15;2.28;;;;;;;9.88;73.10;100302.50;7397138;19;20040;-71
2023/04/11 10:21:51;;;;;;;7.15;2.30;;;;;;;9.88;72.69;100326.06;7396805;19;20014;-72
2023/04/11 10:24:20;;;;;;;6.43;2.80;;;;;;;9.75;76.29;100349.06;7394224;19;20023;-72
2023/04/11 10:26:54;;;;;;;7.63;4.03;;;;;;;9.43;79.49;100336.78;7397045;19;20022;-71
2023/04/11 10:29:50;;;;;;;3.95;2.47;;;;;;;9.04;83.37;100331.56;7397925;19;20027;-69
2023/04/11 10:32:24;;;;;;;3.97;2.22;;;;;;;8.73;84.48;100345.25;7398537;19;20031;-70
2023/04/11 10:35:07;;;;;;;;;;;;;;;8.58;85.23;100334.25;7396640;19;20515;-70
2023/04/11 10:37:37;;;;;;;3.80;2.13;;;;;;;8.50;86.57;100343.97;7395300;19;19918;-70
2023/04/11 10:40:10;;;;;;;4.78;1.88;;;;;;;8.39;84.03;100354.63;7397495;19;20074;-71
2023/04/11 10:42:42;;;;;;;2.15;1.00;;;;;;;8.30;82.18;100365.22;7395221;19;20022;-69
2023/04/11 10:45:25;;;;;;;2.95;1.55;;;;;;;8.21;81.09;100371.47;7396614;19;20018;-71
2023/04/11 10:48:06;;;;;;;2.15;1.33;;;;;;;8.17;83.31;100351.53;7395695;19;20026;-71
2023/04/11 10:50:43;;;;;;;2.10;0.98;;;;;;;8.18;84.48;100361.09;7397035;19;20023;-70
2023/04/11 10:53:35;;;;;;;1.27;0.90;;;;;;;8.22;83.10;100354.06;7395215;19;20351;-70
2023/04/11 10:56:03;;;;;;;1.63;0.95;;;;;;;8.28;83.33;100357.44;7397438;19;20029;-71
2023/04/11 10:58:41;;;;;;;2.15;1.00;;;;;;;8.36;83.14;100367.72;7395870;19;20082;-71
2023/04/11 11:01:18;;;;;;;2.35;1.10;;;;;;;8.41;80.15;100360.66;7396203;19;20162;-71
2023/04/11 11:03:55;;;;;;;2.38;0.90;;;;;;;8.42;78.89;100357.16;7394320;19;20018;-71
2023/04/11 11:06:24;;;;;;;2.28;0.90;;;;;;;8.46;80.20;100365.84;7396802;19;20019;-71
2023/04/11 11:08:53;;;;;;;2.38;0.85;;;;;;;8.48;79.43;100372.78;7394139;19;20018;-71
2023/04/11 11:11:21;;;;;;;1.42;0.65;;;;;;;8.56;80.28;100366.53;7396114;19;20077;-72
2023/04/11 11:13:54;;;;;;;2.20;1.00;;;;;;;8.64;78.82;100360.28;7393398;19;20413;-71
2023/04/11 11:16:24;;;;;;;1.42;0.60;;;;;;;8.74;77.36;100376.63;7393437;19;20011;-71
2023/04/11 11:18:55;;;;;;;2.22;0.70;;;;;;;8.83;75.83;100354.66;7395700;19;20026;-72
2023/04/11 11:21:27;;;;;;;1.00;0.50;;;;;;;8.95;77.36;100370.09;7396289;19;20011;-72
2023/04/11 11:23:57;;;;;;;1.55;0.50;;;;;;;9.04;72.33;100360.34;7394299;19;20460;-70
2023/04/11 11:26:36;;;;;;;0.93;0.60;;;;;;;9.15;78.88;100347.88;7395626;19;20154;-71
2023/04/11 11:29:08;;;;;;;2.80;0.90;;;;;;;9.30;75.94;100351.88;7396156;19;20090;-70
2023/04/11 11:31:40;;;;;;;2.08;0.60;;;;;;;9.43;72.91;100358.56;7395547;19;20018;-71
2023/04/11 11:34:09;;;;;;;0.63;0.45;;;;;;;9.52;76.00;100367.13;7393579;19;20473;-71
2023/04/11 11:36:42;;;;;;;1.55;0.55;;;;;;;9.59;72.46;100343.38;7395322;19;20497;-71
2023/04/11 11:39:12;;;;;;;1.13;0.70;;;;;;;9.69;72.70;100346.63;7395703;19;20021;-71